الصفحة الرئيسية
METAR-TAF:

METAR-TAF

مطار :

مطار كونمينغ جانغشوي الدولي

كونمينغ, جمهورية الصين الشعبية

دائرة عرض: 25-01N, خط طول: 102-41E, ارتفاع: 1892 متر

مراقبة الطقس الحالي

تاريخ ووقت الإصدار 31 دقيقة قبل الساعة 22:00UTC
ريح 4 عقدة من الشمال/الشمال الشرقي
درجة الحرارة 16°درجة مئوية
الرطوبة 100%
ضغط 1018 hPa
الرؤية: 5000 متر
غيوم متفرقة على ارتفاع 200 قدم
غيوم متفرقة على ارتفاع 400 قدم
غيوم مفككة على ارتفاع 4000 قدم
المطارات التي يغطيها الضباب جزئيا, غشاء

METAR: ZPPP 022200Z 02002MPS 5000 PRFG BR SCT002 SCT004 BKN040 16/16 Q1018 NOSIG

زمن: 06:31 (22:31 UTC)

توقعات

تاريخ ووقت الإصدار 7ساعات و 26 دقيقة قبل الساعة 15:05UTC
التوقعات صالحة من02 الساعة 18 UTC إلى 03 الساعة 18 UTC
ريح 8 عقدة من الشمال الشرقي
الرؤية: 6000 متر
غيوم قليلة على ارتفاع 300 قدم
غيوم متفرقة على ارتفاع 2000 قدم
غيوم مفككة على ارتفاع 3300 قدم
أصبح
من 03 الساعة 08 UTC إلى 03 الساعة 09 UTC
ريح 10 عقدة من الجنوب الغربي

TAF: ZPPP 021505Z 0218/0318 04004MPS 6000 FEW003 SCT020 BKN033 TX23/0308Z TN16/0223Z BECMG 0308/0309 22005MPS

أرصاد الطقس والتوقعات من أكثر من 4000 مطار (تقارير الطقس للمطار METAR والتنبؤ بالطقس بالمطارTAF).

المحطات المتاحة هي النقط الصفراء والحمراء على الخريطة.

حرك المؤشر فوق النقطة لمعرفة اسم المحطة.

ثم انقر لمعرفة أرصاد وتوقعات الطقس.

لتغيير الخارطة: اضغط على الأزرار الخضراء مع رمز الصليب الأسود للتكبير. على الزر الأخضر مع شرطة للتصغير، أو على الأسهم الخضراء للخرائط المجاورة.


METAR-TAF: